ME19 weather

Clayton Lake Strip
Clayton Lake, Maine, United States

Public forecast

Using degrees Fahrenheit for public forecast. Weather courtesy of forecast.io.

METAR (pilot weather report)

Closest report is Presque Isle International Airport, 61.0 nm (113.1 km) E. Retrieved 2019/09/18 08:39 UTC (0 seconds ago):

KPQI 180839Z AUTO 00000KT 1 3/4SM BR CLR M02/M02 A3029 RMK AO2 VIS 3/4V5

TAF (pilot weather forecast)

Closest forecast is Presque Isle International Airport, 61.0 nm (113.1 km) E. Retrieved 2019/09/18 06:22 UTC (2 hours ago):

TAF KPQI 180520Z 1806/1906 00000KT 6SM BR SKC TEMPO 1806/1810 1SM BR FM181600 35005KT P6SM SKC FM190400 00000KT P6SM SKC